Time;durP1;ratioP1;P1;durP2;ratioP2;P2;SDS_P1;SDS_P2;PMS_P1;PMS_P2;Temp;Humidity;BMP_temperature;BMP_pressure;BME280_temperature;BME280_humidity;BME280_pressure;Samples;Min_cycle;Max_cycle;Signal;HPM_P1;HPM_P2
2023/07/11 00:01:16;;;;;;;7.80;2.97;;;;;;;20.18;66.30;101560.59;4993990;28;20535;-55
2023/07/11 00:03:42;;;;;;;5.78;2.80;;;;;;;20.13;66.85;101558.38;4994073;28;20600;-54
2023/07/11 00:06:11;;;;;;;6.05;2.50;;;;;;;20.07;66.43;101559.06;4995522;28;20041;-54
2023/07/11 00:08:37;;;;;;;3.97;2.47;;;;;;;20.08;66.66;101552.66;5001492;28;20034;-51
2023/07/11 00:11:03;;;;;;;9.90;3.10;;;;;;;20.02;67.17;101553.28;5002409;28;20030;-53
2023/07/11 00:13:29;;;;;;;4.68;2.78;;;;;;;19.98;67.95;101541.16;4995672;28;20061;-51
2023/07/11 00:16:04;;;;;;;6.63;3.03;;;;;;;19.93;67.37;101550.59;5001636;28;20062;-52
2023/07/11 00:18:30;;;;;;;6.40;2.60;;;;;;;19.85;68.61;101553.25;4995127;28;20068;-54
2023/07/11 00:20:56;;;;;;;6.03;2.78;;;;;;;19.84;68.70;101542.63;5003387;28;20026;-52
2023/07/11 00:23:21;;;;;;;7.30;2.67;;;;;;;19.81;68.71;101548.31;4999257;28;20027;-52
2023/07/11 00:25:47;;;;;;;6.32;2.67;;;;;;;19.74;69.31;101540.84;5000865;28;20479;-54
2023/07/11 00:28:12;;;;;;;5.47;2.70;;;;;;;19.75;68.96;101539.00;4995885;28;20030;-51
2023/07/11 00:30:41;;;;;;;6.10;2.88;;;;;;;19.74;68.52;101540.84;5001270;28;20076;-52
2023/07/11 00:33:07;;;;;;;6.45;2.97;;;;;;;19.72;68.33;101547.41;4991663;28;20035;-52
2023/07/11 00:35:33;;;;;;;6.97;3.10;;;;;;;19.64;69.14;101541.97;4995939;28;20054;-51
2023/07/11 00:37:58;;;;;;;6.38;3.13;;;;;;;19.59;69.15;101540.59;4997425;28;20034;-52
2023/07/11 00:40:23;;;;;;;4.32;3.05;;;;;;;19.51;69.86;101540.53;4997147;28;20049;-54
2023/07/11 00:42:55;;;;;;;6.30;2.72;;;;;;;19.53;69.53;101543.09;5000855;28;20091;-53
2023/07/11 00:45:58;;;;;;;5.32;2.70;;;;;;;19.53;68.87;101545.78;5002675;28;20030;-51
2023/07/11 00:48:23;;;;;;;4.70;3.17;;;;;;;19.34;71.59;101528.00;4996012;28;20113;-51
2023/07/11 00:50:50;;;;;;;5.15;2.95;;;;;;;19.28;71.22;101536.69;4999137;28;20110;-52
2023/07/11 00:53:17;;;;;;;8.77;3.03;;;;;;;19.29;71.25;101533.84;5001139;28;20046;-53
2023/07/11 00:55:44;;;;;;;6.15;2.92;;;;;;;19.21;71.94;101534.63;4993912;28;20044;-51
2023/07/11 00:58:10;;;;;;;7.10;3.15;;;;;;;19.15;72.41;101546.03;4997719;28;20033;-51
2023/07/11 01:00:35;;;;;;;4.57;2.58;;;;;;;19.15;72.10;101548.75;4998139;28;20042;-52
2023/07/11 01:03:01;;;;;;;7.03;3.38;;;;;;;19.03;72.79;101542.75;5000261;28;20023;-52
2023/07/11 01:05:26;;;;;;;6.47;3.00;;;;;;;18.97;73.65;101548.75;4996898;28;20037;-52
2023/07/11 01:07:51;;;;;;;6.70;3.00;;;;;;;18.90;73.63;101546.84;4998823;28;20026;-53
2023/07/11 01:10:17;;;;;;;5.68;3.53;;;;;;;18.87;73.27;101550.69;4995939;28;20142;-53
2023/07/11 01:12:45;;;;;;;4.72;3.40;;;;;;;18.84;73.58;101551.84;4999413;28;20034;-52
2023/07/11 01:15:11;;;;;;;6.25;3.20;;;;;;;18.87;73.30;101539.94;4999024;28;20045;-52
2023/07/11 01:17:37;;;;;;;7.13;3.70;;;;;;;18.79;73.64;101539.81;4995893;28;20471;-54
2023/07/11 01:20:06;;;;;;;4.85;3.22;;;;;;;18.79;73.75;101539.81;5002870;28;20088;-51
2023/07/11 01:22:33;;;;;;;6.38;3.45;;;;;;;18.82;72.93;101543.03;5001182;28;20018;-53
2023/07/11 01:25:13;;;;;;;7.20;3.42;;;;;;;18.79;73.55;101543.34;4996332;28;20041;-55
2023/07/11 01:27:42;;;;;;;6.75;3.28;;;;;;;18.73;74.23;101532.34;5002236;28;20030;-55
2023/07/11 01:30:11;;;;;;;7.28;3.72;;;;;;;18.66;75.09;101532.13;4998724;28;20019;-53
2023/07/11 01:32:37;;;;;;;4.43;3.50;;;;;;;18.65;75.08;101531.28;4998589;28;20475;-53
2023/07/11 01:35:03;;;;;;;9.80;3.65;;;;;;;18.60;75.01;101522.84;4996848;28;20492;-54
2023/07/11 01:37:29;;;;;;;7.47;4.18;;;;;;;18.61;74.60;101521.81;5000106;28;20026;-55
2023/07/11 01:39:55;;;;;;;8.25;3.10;;;;;;;18.59;74.88;101521.13;5002392;28;20072;-52
2023/07/11 01:42:20;;;;;;;7.82;3.00;;;;;;;18.53;75.00;101521.75;4998578;28;20392;-51
2023/07/11 01:44:46;;;;;;;6.60;3.42;;;;;;;18.48;75.95;101508.78;4999344;28;20034;-52
2023/07/11 01:47:11;;;;;;;7.53;3.42;;;;;;;18.47;76.43;101506.25;5001578;28;20091;-51
2023/07/11 01:49:36;;;;;;;5.35;3.30;;;;;;;18.46;75.93;101507.22;4999323;28;20026;-51
2023/07/11 01:52:15;;;;;;;7.68;3.22;;;;;;;18.44;75.49;101509.22;5000994;28;20026;-52
2023/07/11 01:54:40;;;;;;;6.32;3.38;;;;;;;18.40;74.42;101497.06;4998935;28;20438;-52
2023/07/11 01:57:07;;;;;;;4.70;3.17;;;;;;;18.39;75.98;101496.22;4997343;28;20125;-51
2023/07/11 01:59:33;;;;;;;7.70;3.80;;;;;;;18.38;76.07;101491.84;4999284;28;20419;-55
2023/07/11 02:01:59;;;;;;;4.70;3.40;;;;;;;18.35;75.59;101494.81;4998191;28;20026;-52
2023/07/11 02:04:25;;;;;;;5.57;3.30;;;;;;;18.34;76.63;101489.63;4995867;28;20022;-51
2023/07/11 02:06:51;;;;;;;8.43;3.67;;;;;;;18.33;75.36;101485.25;4998005;28;20022;-55
2023/07/11 02:09:17;;;;;;;6.80;3.28;;;;;;;18.29;76.48;101488.22;4999177;28;20022;-52
2023/07/11 02:11:43;;;;;;;5.78;3.50;;;;;;;18.27;76.25;101484.03;5000976;28;20033;-54
2023/07/11 02:14:09;;;;;;;6.25;3.25;;;;;;;18.17;77.57;101481.41;4995741;28;20030;-53
2023/07/11 02:16:34;;;;;;;6.90;3.58;;;;;;;18.11;77.44;101471.25;4997600;28;20023;-53
2023/07/11 02:18:59;;;;;;;6.22;2.85;;;;;;;18.19;76.30;101479.41;4999142;28;20388;-54
2023/07/11 02:21:25;;;;;;;7.80;3.30;;;;;;;18.13;77.21;101474.63;5000764;28;20030;-55
2023/07/11 02:23:50;;;;;;;5.32;3.30;;;;;;;18.15;76.84;101469.91;4999594;28;20026;-53
2023/07/11 02:26:16;;;;;;;5.53;3.40;;;;;;;18.11;76.88;101460.47;4995055;28;20029;-54
2023/07/11 02:28:41;;;;;;;6.63;3.60;;;;;;;18.14;76.53;101465.56;4999154;28;20219;-54
2023/07/11 02:31:07;;;;;;;8.48;3.80;;;;;;;18.10;75.85;101461.47;4997889;28;20018;-52
2023/07/11 02:33:32;;;;;;;9.38;3.88;;;;;;;18.07;76.66;101457.25;5000891;28;20030;-51
2023/07/11 02:35:57;;;;;;;5.78;3.50;;;;;;;18.07;77.00;101454.56;4998084;28;20037;-53
2023/07/11 02:38:23;;;;;;;10.32;3.65;;;;;;;18.03;76.81;101449.66;5002180;28;20509;-54
2023/07/11 02:40:48;;;;;;;5.65;3.40;;;;;;;18.03;76.73;101446.97;4999863;28;20110;-52
2023/07/11 02:43:15;;;;;;;9.57;3.60;;;;;;;17.99;76.67;101438.34;5003809;28;20037;-52
2023/07/11 02:45:40;;;;;;;6.80;4.07;;;;;;;17.92;77.11;101442.66;4997686;28;20660;-52
2023/07/11 02:48:05;;;;;;;9.35;3.95;;;;;;;17.95;76.85;101442.31;5003967;28;20109;-51
2023/07/11 02:50:31;;;;;;;6.82;3.60;;;;;;;17.86;77.40;101430.63;4999367;28;20040;-51
2023/07/11 02:52:56;;;;;;;6.93;4.03;;;;;;;17.90;77.44;101426.69;5004020;28;20030;-52
2023/07/11 02:55:21;;;;;;;7.50;4.03;;;;;;;17.89;77.65;101426.81;4996941;28;21137;-51
2023/07/11 02:57:47;;;;;;;9.32;3.80;;;;;;;17.87;77.05;101424.28;5001861;28;20026;-53
2023/07/11 03:00:12;;;;;;;8.02;3.70;;;;;;;17.85;77.27;101417.31;5000044;28;20026;-52
2023/07/11 03:02:38;;;;;;;11.95;3.80;;;;;;;17.78;77.87;101414.41;4999924;28;20034;-53
2023/07/11 03:05:03;;;;;;;8.50;3.80;;;;;;;17.83;77.66;101414.78;5004644;28;20022;-52
2023/07/11 03:07:28;;;;;;;9.35;3.78;;;;;;;17.78;77.33;101414.41;5000878;28;20495;-51
2023/07/11 03:09:54;;;;;;;6.32;3.92;;;;;;;17.80;77.02;101412.41;5000439;28;20033;-53
2023/07/11 03:12:19;;;;;;;7.85;3.45;;;;;;;17.76;77.00;101400.28;5004127;28;20471;-52
2023/07/11 03:14:47;;;;;;;7.13;3.63;;;;;;;17.73;78.35;101404.09;5001704;28;20022;-53
2023/07/11 03:17:12;;;;;;;8.57;3.72;;;;;;;17.70;78.20;101401.75;4994599;28;20031;-51
2023/07/11 03:19:38;;;;;;;5.90;3.55;;;;;;;17.72;78.10;101399.75;5002882;28;20385;-52
2023/07/11 03:22:03;;;;;;;8.68;3.97;;;;;;;17.70;77.91;101398.19;5002879;28;20037;-52
2023/07/11 03:24:28;;;;;;;9.02;3.60;;;;;;;17.68;78.73;101394.81;5000650;28;20035;-52
2023/07/11 03:26:54;;;;;;;14.35;4.07;;;;;;;17.65;78.53;101392.44;5002133;28;20037;-53
2023/07/11 03:29:19;;;;;;;11.52;4.18;;;;;;;17.66;78.31;101392.28;5002923;28;20125;-51
2023/07/11 03:31:44;;;;;;;11.93;4.35;;;;;;;17.62;78.92;101387.34;5003655;28;20446;-51
2023/07/11 03:34:10;;;;;;;11.20;3.95;;;;;;;17.54;78.90;101390.81;4999142;28;20062;-51
2023/07/11 03:36:36;;;;;;;9.55;4.05;;;;;;;17.54;79.28;101386.28;5002827;28;20383;-51
2023/07/11 03:39:03;;;;;;;13.57;3.80;;;;;;;17.51;79.07;101389.25;5000515;28;20586;-52
2023/07/11 03:41:29;;;;;;;7.03;3.97;;;;;;;17.50;80.01;101387.56;5002095;28;20434;-52
2023/07/11 03:43:54;;;;;;;11.95;4.15;;;;;;;17.52;79.82;101385.59;5000071;28;20117;-54
2023/07/11 03:46:19;;;;;;;10.15;4.50;;;;;;;17.51;80.27;101388.41;5001734;28;20030;-52
2023/07/11 03:48:44;;;;;;;6.35;3.90;;;;;;;17.51;79.72;101389.25;4995210;28;20037;-55
2023/07/11 03:51:10;;;;;;;8.60;4.32;;;;;;;17.51;79.99;101383.88;4998865;28;20052;-52
2023/07/11 03:53:36;;;;;;;6.57;3.55;;;;;;;17.48;79.85;101383.34;4997607;28;20031;-54
2023/07/11 03:56:02;;;;;;;8.10;3.72;;;;;;;17.42;80.04;101373.19;5001077;28;20475;-54
2023/07/11 03:58:27;;;;;;;6.57;3.90;;;;;;;17.43;80.14;101378.41;4999557;28;20034;-55
2023/07/11 04:00:53;;;;;;;6.68;4.00;;;;;;;17.37;80.20;101369.13;4999264;28;20057;-53
2023/07/11 04:03:19;;;;;;;6.13;3.47;;;;;;;17.38;80.20;101378.84;4986184;28;20038;-52
2023/07/11 04:05:44;;;;;;;4.65;3.58;;;;;;;17.38;80.63;101368.09;5002092;28;20084;-53
2023/07/11 04:08:09;;;;;;;8.98;3.63;;;;;;;17.37;80.64;101368.28;4999463;28;20049;-55
2023/07/11 04:10:35;;;;;;;4.95;3.72;;;;;;;17.35;80.30;101372.94;4997168;28;20033;-54
2023/07/11 04:13:02;;;;;;;6.03;3.35;;;;;;;17.32;80.46;101368.72;4998129;28;20450;-54
2023/07/11 04:15:28;;;;;;;5.00;3.40;;;;;;;17.33;80.85;101364.19;5000147;28;20029;-52
2023/07/11 04:17:53;;;;;;;6.65;3.22;;;;;;;17.36;80.54;101361.22;4999694;28;20964;-53
2023/07/11 04:20:19;;;;;;;5.35;3.72;;;;;;;17.38;80.09;101359.22;5000141;28;20037;-51
2023/07/11 04:22:44;;;;;;;5.35;3.58;;;;;;;17.41;80.70;101358.09;4998747;28;20028;-53
2023/07/11 04:25:09;;;;;;;10.45;3.50;;;;;;;17.44;80.36;101355.94;5000899;28;20033;-54
2023/07/11 04:27:35;;;;;;;6.80;3.65;;;;;;;17.49;79.32;101358.19;4998348;28;20479;-51
2023/07/11 04:30:01;;;;;;;4.60;3.20;;;;;;;17.49;79.52;101350.97;5000440;28;20048;-54
2023/07/11 04:32:27;;;;;;;5.10;3.67;;;;;;;17.53;79.85;101354.19;5002442;28;20418;-52
2023/07/11 04:34:53;;;;;;;4.55;3.22;;;;;;;17.59;79.42;101347.38;5001066;28;20482;-52
2023/07/11 04:37:18;;;;;;;7.05;3.60;;;;;;;17.62;79.13;101349.75;5000981;28;20026;-51
2023/07/11 04:39:43;;;;;;;4.78;3.45;;;;;;;17.65;79.61;101344.06;4998215;28;20046;-52
2023/07/11 04:42:09;;;;;;;6.75;3.55;;;;;;;17.68;78.98;101335.72;5002205;28;20108;-52
2023/07/11 04:44:34;;;;;;;6.57;3.95;;;;;;;17.71;79.21;101338.09;4997737;28;20032;-51
2023/07/11 04:47:00;;;;;;;7.40;3.42;;;;;;;17.75;78.76;101339.47;5001511;28;20360;-54
2023/07/11 04:49:26;;;;;;;5.85;3.20;;;;;;;17.80;78.65;101337.16;4998408;28;20084;-51
2023/07/11 04:51:51;;;;;;;7.40;3.22;;;;;;;17.88;78.02;101342.66;4995424;28;20034;-54
2023/07/11 04:54:16;;;;;;;8.07;3.38;;;;;;;17.96;77.74;101335.69;5001685;28;20733;-53
2023/07/11 04:56:42;;;;;;;5.97;3.38;;;;;;;18.02;77.48;101326.97;4999645;28;20029;-54
2023/07/11 04:59:08;;;;;;;7.22;3.47;;;;;;;18.14;76.78;101330.31;4998697;28;20034;-54
2023/07/11 05:01:33;;;;;;;9.43;3.35;;;;;;;18.23;76.68;101332.88;5000245;28;20030;-54
2023/07/11 05:03:59;;;;;;;4.10;3.15;;;;;;;18.33;75.99;101322.03;5002984;28;20032;-52
2023/07/11 05:06:24;;;;;;;6.60;3.00;;;;;;;18.44;75.13;101319.09;5001725;28;20459;-52
2023/07/11 05:08:49;;;;;;;5.22;3.10;;;;;;;18.58;74.94;101314.97;5000271;28;20065;-55
2023/07/11 05:11:17;;;;;;;6.60;3.00;;;;;;;18.70;74.96;101317.41;4999904;28;20472;-55
2023/07/11 05:13:45;;;;;;;7.55;3.20;;;;;;;18.81;73.88;101311.75;4999447;28;20022;-54
2023/07/11 05:16:17;;;;;;;5.57;2.78;;;;;;;18.89;72.91;101311.81;4997905;28;20124;-51
2023/07/11 05:18:43;;;;;;;6.53;3.08;;;;;;;18.95;72.41;101305.81;5001333;28;20380;-55
2023/07/11 05:21:10;;;;;;;6.90;3.53;;;;;;;19.01;72.83;101307.84;4995890;28;20033;-53
2023/07/11 05:23:37;;;;;;;9.15;3.00;;;;;;;19.08;72.65;101308.03;4998978;28;20476;-55
2023/07/11 05:26:03;;;;;;;6.13;2.83;;;;;;;19.13;72.42;101305.69;4999079;28;20069;-54
2023/07/11 05:28:29;;;;;;;4.68;2.75;;;;;;;19.20;72.31;101300.50;5000985;28;20049;-52
2023/07/11 05:30:55;;;;;;;9.40;2.83;;;;;;;19.28;71.57;101303.22;5000097;28;20040;-53
2023/07/11 05:33:21;;;;;;;5.30;2.92;;;;;;;19.37;71.38;101299.56;4994197;28;20108;-54
2023/07/11 05:36:09;;;;;;;5.80;2.67;;;;;;;19.51;71.19;101298.06;4998437;28;20053;-52
2023/07/11 05:38:34;;;;;;;7.33;2.87;;;;;;;19.69;71.25;101295.25;4996332;28;20050;-54
2023/07/11 05:41:00;;;;;;;9.00;3.22;;;;;;;19.86;69.15;101290.72;5000653;28;20049;-54
2023/07/11 05:43:26;;;;;;;12.25;4.10;;;;;;;20.05;69.10;101284.19;5001766;28;20064;-54
2023/07/11 05:45:52;;;;;;;29.45;5.75;;;;;;;20.31;68.11;101292.06;5000389;28;20097;-54
2023/07/11 05:48:17;;;;;;;7.90;2.90;;;;;;;20.49;67.51;101291.03;5000338;28;20464;-54
2023/07/11 05:50:42;;;;;;;12.18;3.25;;;;;;;20.69;67.19;101286.94;5001401;28;20021;-52
2023/07/11 05:53:08;;;;;;;6.70;2.80;;;;;;;20.91;66.56;101289.06;4999844;28;20054;-51
2023/07/11 05:55:33;;;;;;;10.02;2.85;;;;;;;21.14;66.19;101283.75;5000716;28;20442;-52
2023/07/11 05:57:58;;;;;;;6.43;2.80;;;;;;;21.35;65.33;101277.69;4999813;28;20435;-52
2023/07/11 06:00:24;;;;;;;11.88;3.42;;;;;;;21.56;64.17;101275.22;4997644;28;20022;-52
2023/07/11 06:02:49;;;;;;;15.25;3.00;;;;;;;21.79;63.32;101267.13;4995268;28;20023;-54
2023/07/11 06:05:15;;;;;;;11.13;3.40;;;;;;;21.98;62.83;101276.63;4997163;28;20022;-52
2023/07/11 06:07:40;;;;;;;9.10;3.33;;;;;;;22.07;61.52;101271.13;4994023;28;20034;-51
2023/07/11 06:10:06;;;;;;;6.85;2.90;;;;;;;22.28;61.27;101265.91;4996017;28;20483;-55
2023/07/11 06:12:33;;;;;;;7.85;3.08;;;;;;;22.44;60.53;101264.03;4999811;28;20053;-53
2023/07/11 06:14:59;;;;;;;9.98;3.05;;;;;;;22.64;60.06;101259.75;5000537;28;20066;-52
2023/07/11 06:17:24;;;;;;;11.55;2.90;;;;;;;22.79;59.24;101257.03;4995914;28;20101;-52
2023/07/11 06:19:50;;;;;;;12.55;2.95;;;;;;;23.03;59.09;101260.44;4984970;28;20054;-53
2023/07/11 06:22:15;;;;;;;9.70;2.75;;;;;;;23.34;58.63;101259.38;4992398;28;20034;-52
2023/07/11 06:24:40;;;;;;;10.17;2.70;;;;;;;23.57;58.39;101270.06;4995553;28;20030;-53
2023/07/11 06:27:06;;;;;;;6.32;2.70;;;;;;;23.78;57.09;101259.19;5002887;28;20877;-52
2023/07/11 06:29:31;;;;;;;14.45;3.55;;;;;;;23.91;56.17;101263.09;4997808;28;20088;-52
2023/07/11 06:31:57;;;;;;;6.10;2.72;;;;;;;24.08;55.98;101260.91;4998939;28;20130;-57
2023/07/11 06:34:23;;;;;;;8.52;3.03;;;;;;;24.31;55.33;101261.50;4996728;28;20069;-54
2023/07/11 06:36:48;;;;;;;9.10;2.75;;;;;;;24.38;53.68;101266.97;4996158;28;20411;-54
2023/07/11 06:39:14;;;;;;;5.87;2.57;;;;;;;24.61;53.81;101261.31;4996451;28;20527;-52
2023/07/11 06:41:39;;;;;;;6.18;2.45;;;;;;;24.75;53.76;101259.50;4996409;28;20355;-52
2023/07/11 06:44:08;;;;;;;7.85;2.45;;;;;;;25.04;52.83;101258.38;4998433;28;20356;-53
2023/07/11 06:46:34;;;;;;;15.02;3.08;;;;;;;25.32;52.59;101252.00;4999920;28;20061;-54
2023/07/11 06:49:00;;;;;;;18.67;3.55;;;;;;;25.43;51.78;101253.28;4997686;28;20042;-53
2023/07/11 06:51:26;;;;;;;9.13;2.50;;;;;;;25.61;51.21;101249.97;4997429;28;20042;-52
2023/07/11 06:53:52;;;;;;;6.75;2.83;;;;;;;25.96;50.76;101247.94;4999628;28;20084;-53
2023/07/11 06:56:17;;;;;;;8.43;2.88;;;;;;;26.10;49.21;101245.22;4983257;28;20035;-52
2023/07/11 06:58:43;;;;;;;8.05;2.50;;;;;;;26.31;47.80;101241.38;4991644;28;20446;-54
2023/07/11 07:01:10;;;;;;;6.43;2.17;;;;;;;26.45;46.10;101247.66;4995252;28;20038;-55
2023/07/11 07:03:35;;;;;;;6.22;2.40;;;;;;;26.59;46.38;101239.22;4994147;28;20118;-53
2023/07/11 07:06:04;;;;;;;7.97;2.28;;;;;;;26.87;45.38;101245.44;4998965;28;20113;-56
2023/07/11 07:08:29;;;;;;;6.00;2.17;;;;;;;27.12;44.91;101240.09;4997853;28;20026;-52
2023/07/11 07:10:54;;;;;;;8.00;2.35;;;;;;;27.19;45.59;101240.88;4998557;28;20395;-52
2023/07/11 07:13:21;;;;;;;6.78;2.20;;;;;;;27.46;44.15;101243.47;4998280;28;20058;-53
2023/07/11 07:15:49;;;;;;;7.45;2.47;;;;;;;27.68;43.38;101250.25;4993471;28;20049;-53
2023/07/11 07:18:15;;;;;;;6.85;2.60;;;;;;;27.81;43.42;101243.84;4998891;28;20391;-55
2023/07/11 07:20:40;;;;;;;8.02;2.20;;;;;;;28.16;43.24;101237.91;4997663;28;20045;-54
2023/07/11 07:23:08;;;;;;;6.80;2.00;;;;;;;28.41;41.92;101235.13;4997680;28;20030;-53
2023/07/11 07:25:33;;;;;;;7.93;2.50;;;;;;;28.53;41.06;101237.09;5001247;28;20038;-54
2023/07/11 07:27:58;;;;;;;9.00;2.55;;;;;;;28.52;40.35;101238.16;4996567;28;20035;-52
2023/07/11 07:30:24;;;;;;;6.18;2.65;;;;;;;28.84;40.63;101238.84;4998221;28;20547;-52
2023/07/11 07:32:49;;;;;;;6.88;1.90;;;;;;;29.08;39.48;101233.50;4996358;28;20404;-52
2023/07/11 07:35:15;;;;;;;8.30;2.13;;;;;;;29.20;39.65;101239.03;4999652;28;20484;-52
2023/07/11 07:37:40;;;;;;;7.97;2.40;;;;;;;29.25;38.40;101230.97;4998182;28;20490;-52
2023/07/11 07:40:06;;;;;;;6.50;2.00;;;;;;;29.48;38.92;101230.22;5000434;28;20033;-52
2023/07/11 07:42:32;;;;;;;7.70;2.03;;;;;;;29.60;37.40;101222.84;4996733;28;20054;-54
2023/07/11 07:44:57;;;;;;;6.32;2.17;;;;;;;29.77;37.47;101224.88;4996902;28;20494;-56
2023/07/11 07:47:22;;;;;;;5.70;2.22;;;;;;;30.12;38.56;101215.88;5001610;28;20077;-55
2023/07/11 07:49:48;;;;;;;4.80;1.88;;;;;;;30.18;36.87;101215.75;4991673;28;20039;-55
2023/07/11 07:52:13;;;;;;;7.25;1.80;;;;;;;30.44;36.74;101208.97;4995667;28;20445;-54
2023/07/11 07:54:38;;;;;;;5.43;2.10;;;;;;;30.66;36.33;101202.84;4989967;28;20045;-55
2023/07/11 07:57:04;;;;;;;8.05;2.25;;;;;;;30.82;35.96;101206.69;4995200;28;20022;-55
2023/07/11 07:59:30;;;;;;;9.25;2.78;;;;;;;31.20;35.49;101207.16;4993364;28;20364;-53
2023/07/11 08:01:56;;;;;;;4.90;1.90;;;;;;;31.30;34.84;101202.69;4999499;28;20027;-55
2023/07/11 08:04:21;;;;;;;15.27;3.13;;;;;;;31.62;34.64;101201.31;4998275;28;20356;-55
2023/07/11 08:06:47;;;;;;;8.20;1.95;;;;;;;31.45;33.69;101198.56;4999671;28;20026;-55
2023/07/11 08:09:12;;;;;;;5.30;1.98;;;;;;;31.47;34.50;101204.63;5000518;28;20033;-52
2023/07/11 08:11:37;;;;;;;6.40;2.22;;;;;;;31.40;35.03;101195.72;4999527;28;20022;-54
2023/07/11 08:14:03;;;;;;;8.73;3.08;;;;;;;31.36;34.60;101196.22;5000765;28;20021;-55
2023/07/11 08:16:29;;;;;;;6.10;1.60;;;;;;;31.65;34.63;101198.09;4993429;28;20057;-53
2023/07/11 08:18:55;;;;;;;5.63;2.10;;;;;;;31.98;34.09;101196.41;5002381;28;20095;-53
2023/07/11 08:21:20;;;;;;;8.82;2.40;;;;;;;31.87;33.76;101190.72;5000160;28;20022;-55
2023/07/11 08:23:46;;;;;;;8.38;2.10;;;;;;;32.19;32.85;101187.38;4999928;28;20035;-49
2023/07/11 08:26:11;;;;;;;7.28;2.10;;;;;;;32.40;32.54;101193.97;4998051;28;20387;-50
2023/07/11 08:28:36;;;;;;;8.57;1.90;;;;;;;32.37;33.14;101188.97;4999240;28;20367;-49
2023/07/11 08:31:05;;;;;;;5.20;1.70;;;;;;;32.44;33.49;101191.53;4998328;28;20033;-48
2023/07/11 08:33:30;;;;;;;;;;;;;;;32.88;35.11;101193.47;5000277;28;20018;-48
2023/07/11 08:35:56;;;;;;;3.75;2.05;;;;;;;32.90;32.14;101189.34;4998298;28;20367;-48
2023/07/11 08:38:22;;;;;;;6.95;2.30;;;;;;;33.00;31.98;101186.69;5002369;28;20030;-48
2023/07/11 08:40:47;;;;;;;8.95;1.88;;;;;;;33.06;31.58;101182.09;5001250;28;20026;-48
2023/07/11 08:43:22;;;;;;;4.75;1.80;;;;;;;33.27;31.70;101185.06;4996685;28;20034;-51
2023/07/11 08:46:01;;;;;;;8.65;2.15;;;;;;;33.33;31.87;101184.84;4998366;28;20172;-48
2023/07/11 08:48:36;;;;;;;5.78;2.10;;;;;;;33.27;31.48;101185.88;4990693;28;20039;-49
2023/07/11 08:51:24;;;;;;;11.00;2.35;;;;;;;33.11;32.87;101176.63;4990036;28;20033;-48
2023/07/11 08:53:57;;;;;;;8.75;2.13;;;;;;;33.20;32.50;101174.25;4991461;28;20169;-49
2023/07/11 08:56:36;;;;;;;4.90;1.55;;;;;;;33.52;31.97;101168.72;4996538;28;20085;-52
2023/07/11 08:59:14;;;;;;;6.32;2.17;;;;;;;33.34;32.09;101177.41;4994750;28;20037;-51
2023/07/11 09:01:56;;;;;;;7.28;2.15;;;;;;;33.56;32.22;101172.63;5001873;28;20053;-52
2023/07/11 09:04:23;;;;;;;8.27;2.22;;;;;;;33.45;31.29;101170.88;5004366;28;20117;-51
2023/07/11 09:06:59;;;;;;;12.98;2.30;;;;;;;33.36;32.84;101166.97;4999548;28;20034;-53
2023/07/11 09:09:25;;;;;;;5.18;1.92;;;;;;;33.46;31.38;101161.53;4993758;28;20030;-54
2023/07/11 09:12:05;;;;;;;5.75;2.03;;;;;;;33.42;31.99;101173.34;4998570;28;20042;-54
2023/07/11 09:14:54;;;;;;;6.57;1.90;;;;;;;33.27;32.41;101166.59;4996935;28;20030;-52
2023/07/11 09:17:50;;;;;;;5.45;1.95;;;;;;;33.49;32.47;101160.16;4995649;28;20030;-52
2023/07/11 09:20:49;;;;;;;6.07;2.05;;;;;;;33.63;32.03;101164.13;4993332;28;20034;-53
2023/07/11 09:23:42;;;;;;;8.15;2.00;;;;;;;33.92;31.20;101155.53;4992188;28;20038;-54
2023/07/11 09:26:16;;;;;;;5.35;2.10;;;;;;;33.97;30.92;101158.31;5011676;28;20108;-50
2023/07/11 09:28:42;;;;;;;5.72;2.30;;;;;;;34.05;30.23;101146.78;4998483;28;20041;-49
2023/07/11 09:31:17;;;;;;;5.57;2.10;;;;;;;34.13;30.36;101150.16;4996045;28;20030;-49
2023/07/11 09:33:50;;;;;;;4.35;1.85;;;;;;;34.27;29.73;101148.56;5000515;28;20069;-49
2023/07/11 09:36:22;;;;;;;4.75;2.15;;;;;;;34.47;28.79;101145.06;5001100;28;20034;-49
2023/07/11 09:39:12;;;;;;;6.40;2.25;;;;;;;34.55;30.05;101146.47;4998064;28;20026;-50
2023/07/11 09:41:53;;;;;;;25.67;2.85;;;;;;;34.43;30.10;101153.03;4991769;28;20045;-49
2023/07/11 09:44:18;;;;;;;5.78;2.17;;;;;;;34.65;30.15;101144.53;4995507;28;20026;-49
2023/07/11 09:46:44;;;;;;;3.45;2.00;;;;;;;34.49;28.64;101145.59;5000218;28;20448;-49
2023/07/11 09:49:18;;;;;;;4.53;2.20;;;;;;;34.70;29.26;101143.72;4974160;28;20299;-49
2023/07/11 09:51:59;;;;;;;6.25;2.10;;;;;;;35.08;28.98;101135.28;4997475;28;20277;-49
2023/07/11 09:54:27;;;;;;;6.20;2.08;;;;;;;35.02;28.69;101134.44;4998879;28;20030;-49
2023/07/11 09:56:55;;;;;;;7.35;2.40;;;;;;;35.10;28.73;101138.59;5001886;28;20061;-49
2023/07/11 09:59:20;;;;;;;10.35;3.00;;;;;;;35.10;28.43;101130.28;5000052;28;20371;-49
2023/07/11 10:01:51;;;;;;;6.70;2.25;;;;;;;34.65;28.38;101128.00;5001517;28;20030;-49
2023/07/11 10:04:22;;;;;;;5.57;2.40;;;;;;;34.70;28.94;101132.69;5003560;28;20026;-52
2023/07/11 10:06:59;;;;;;;6.38;2.15;;;;;;;34.65;29.98;101132.69;5000596;28;20518;-54
2023/07/11 10:09:27;;;;;;;9.13;2.10;;;;;;;34.70;28.84;101129.13;5000595;28;20053;-52
2023/07/11 10:12:01;;;;;;;7.60;2.10;;;;;;;34.82;29.21;101127.81;4996237;28;20022;-50
2023/07/11 10:14:34;;;;;;;7.60;2.17;;;;;;;34.88;29.70;101125.88;5004756;28;20375;-51
2023/07/11 10:17:11;;;;;;;6.13;2.50;;;;;;;35.03;29.37;101114.81;5003569;28;20049;-52
2023/07/11 10:19:37;;;;;;;5.57;2.20;;;;;;;35.12;28.94;101115.09;5002441;28;20061;-51
2023/07/11 10:22:03;;;;;;;4.53;1.95;;;;;;;35.20;28.85;101119.25;5002285;28;20038;-52
2023/07/11 10:24:37;;;;;;;6.22;2.33;;;;;;;35.07;29.70;101123.38;4988494;28;20045;-52
2023/07/11 10:27:09;;;;;;;6.70;2.25;;;;;;;34.58;29.69;101102.59;5001489;28;20027;-52
2023/07/11 10:29:42;;;;;;;9.10;2.28;;;;;;;34.72;30.01;101105.69;5000906;28;20042;-51
2023/07/11 10:32:14;;;;;;;6.55;2.17;;;;;;;34.34;29.59;101105.03;4999177;28;20030;-54
2023/07/11 10:34:46;;;;;;;8.10;2.17;;;;;;;34.33;30.25;101108.91;4994626;28;20488;-55
2023/07/11 10:37:41;;;;;;;5.43;2.00;;;;;;;34.44;30.67;101099.56;4997853;28;20044;-52
2023/07/11 10:40:18;;;;;;;4.45;2.33;;;;;;;34.40;30.45;101100.38;4992956;28;20384;-53
2023/07/11 10:43:10;;;;;;;6.80;2.30;;;;;;;34.67;30.01;101089.09;4995630;28;20092;-55
2023/07/11 10:45:40;;;;;;;6.13;2.10;;;;;;;34.54;29.72;101092.38;4999858;28;20038;-52
2023/07/11 10:48:05;;;;;;;5.20;2.22;;;;;;;34.47;28.46;101087.97;4999067;28;20056;-53
2023/07/11 10:50:47;;;;;;;6.57;2.20;;;;;;;34.52;29.37;101089.91;4991288;28;20022;-53
2023/07/11 10:53:24;;;;;;;5.93;2.33;;;;;;;34.43;29.62;101084.09;5000017;28;20053;-54
2023/07/11 10:55:58;;;;;;;5.40;2.17;;;;;;;34.38;29.60;101094.31;5001576;28;20030;-51
2023/07/11 10:58:23;;;;;;;3.95;2.13;;;;;;;34.43;29.53;101091.56;4992905;28;20050;-53
2023/07/11 11:01:24;;;;;;;7.43;2.42;;;;;;;34.79;30.04;101084.19;4994575;28;20045;-54
2023/07/11 11:03:57;;;;;;;7.10;2.20;;;;;;;34.63;29.89;101079.72;4985006;28;20396;-54
2023/07/11 11:06:36;;;;;;;5.93;2.20;;;;;;;34.77;29.92;101080.03;4994888;28;20045;-52
2023/07/11 11:09:19;;;;;;;4.93;2.15;;;;;;;34.89;29.37;101075.09;4998383;28;20046;-54
2023/07/11 11:12:01;;;;;;;6.25;2.35;;;;;;;35.05;28.84;101069.56;5002555;28;20383;-54
2023/07/11 11:14:53;;;;;;;7.05;2.30;;;;;;;35.19;29.62;101071.50;4998052;28;20044;-52
2023/07/11 11:17:47;;;;;;;6.30;2.10;;;;;;;35.32;28.93;101066.53;4993312;28;20046;-52
2023/07/11 11:20:22;;;;;;;8.65;2.17;;;;;;;35.33;28.58;101069.00;5000800;28;20046;-52
2023/07/11 11:23:09;;;;;;;6.22;2.45;;;;;;;35.35;28.26;101064.03;4999772;28;20365;-54
2023/07/11 11:25:57;;;;;;;6.17;2.47;;;;;;;35.32;28.09;101055.47;4981239;28;20181;-54
2023/07/11 11:28:30;;;;;;;6.13;2.28;;;;;;;35.32;28.79;101047.19;4996139;28;20285;-49
2023/07/11 11:31:13;;;;;;;4.30;2.00;;;;;;;35.32;28.12;101049.97;4990892;28;20041;-49